createdAt,value
2022-12-03T00:00:15.784Z,19.75
2022-12-03T00:02:42.331Z,18.25
2022-12-03T00:05:09.851Z,17.00
2022-12-03T00:07:36.374Z,18.85
2022-12-03T00:10:03.210Z,19.88
2022-12-03T00:12:29.591Z,19.50
2022-12-03T00:14:56.240Z,20.08
2022-12-03T00:17:22.850Z,19.27
2022-12-03T00:19:49.231Z,19.90
2022-12-03T00:22:15.654Z,20.60
2022-12-03T00:24:42.040Z,19.05
2022-12-03T00:27:08.422Z,20.63
2022-12-03T00:29:34.830Z,19.60
2022-12-03T00:32:01.235Z,20.50
2022-12-03T00:34:27.632Z,17.45
2022-12-03T00:36:54.037Z,19.40
2022-12-03T00:39:20.430Z,19.83
2022-12-03T00:41:46.895Z,20.33
2022-12-03T00:44:13.706Z,19.27
2022-12-03T00:46:40.222Z,19.17
2022-12-03T00:49:06.656Z,20.38
2022-12-03T00:51:33.157Z,18.73
2022-12-03T00:53:59.546Z,18.52
2022-12-03T00:56:25.944Z,20.05
2022-12-03T00:58:52.345Z,20.50
2022-12-03T01:01:18.892Z,21.08
2022-12-03T01:03:45.537Z,20.70
2022-12-03T01:06:11.955Z,20.80
2022-12-03T01:08:38.330Z,23.98
2022-12-03T01:11:24.942Z,21.80
2022-12-03T01:13:51.347Z,20.80
2022-12-03T01:16:17.820Z,21.05
2022-12-03T01:18:46.152Z,20.77
2022-12-03T01:21:12.791Z,22.77
2022-12-03T01:23:39.242Z,21.08
2022-12-03T01:26:05.680Z,21.67
2022-12-03T01:28:32.369Z,22.20
2022-12-03T01:31:17.630Z,20.77
2022-12-03T01:33:44.081Z,22.70
2022-12-03T01:36:10.502Z,22.27
2022-12-03T01:38:36.915Z,16.77
2022-12-03T01:41:07.246Z,21.30
2022-12-03T01:43:38.019Z,23.10
2022-12-03T01:46:04.537Z,24.77
2022-12-03T01:48:33.527Z,24.30
2022-12-03T01:50:59.927Z,23.33
2022-12-03T01:53:26.352Z,24.63
2022-12-03T01:55:52.763Z,21.80
2022-12-03T01:58:24.770Z,23.55
2022-12-03T02:00:51.224Z,23.35
2022-12-03T02:03:22.475Z,21.27
2022-12-03T02:05:49.066Z,24.52
2022-12-03T02:08:33.566Z,23.25
2022-12-03T02:11:04.735Z,22.77
2022-12-03T02:13:31.629Z,21.10
2022-12-03T02:15:58.152Z,23.05
2022-12-03T02:18:24.899Z,22.38
2022-12-03T02:21:16.622Z,23.13
2022-12-03T02:23:59.069Z,22.83
2022-12-03T02:26:25.649Z,21.95
2022-12-03T02:28:52.153Z,22.20
2022-12-03T02:31:18.603Z,22.75
2022-12-03T02:33:45.229Z,23.10
2022-12-03T02:36:11.857Z,21.60
2022-12-03T02:38:38.769Z,20.73
2022-12-03T02:41:08.111Z,22.52
2022-12-03T02:43:34.521Z,22.02
2022-12-03T02:46:02.535Z,21.23
2022-12-03T02:48:34.743Z,23.13
2022-12-03T02:51:05.587Z,20.95
2022-12-03T02:53:37.544Z,23.17
2022-12-03T02:56:05.191Z,22.00
2022-12-03T02:58:32.815Z,21.02
2022-12-03T03:01:00.255Z,21.20
2022-12-03T03:03:28.052Z,18.00
2022-12-03T03:05:56.695Z,22.45
2022-12-03T03:08:24.125Z,18.35
2022-12-03T03:10:50.650Z,21.48
2022-12-03T03:13:18.743Z,20.10
2022-12-03T03:15:45.612Z,20.58
2022-12-03T03:18:13.467Z,20.77
2022-12-03T03:20:40.047Z,22.88
2022-12-03T03:23:12.455Z,22.80
2022-12-03T03:25:40.089Z,20.20
2022-12-03T03:28:07.461Z,23.13
2022-12-03T03:30:35.760Z,20.70
2022-12-03T03:33:02.180Z,19.42
2022-12-03T03:35:28.585Z,18.00
2022-12-03T03:37:55.214Z,22.80
2022-12-03T03:40:22.041Z,20.80
2022-12-03T03:42:48.769Z,19.23
2022-12-03T03:45:15.473Z,19.85
2022-12-03T03:47:42.641Z,21.05
2022-12-03T03:50:10.998Z,20.10
2022-12-03T03:52:38.058Z,20.88
2022-12-03T03:55:04.985Z,21.83
2022-12-03T03:57:31.399Z,21.38
2022-12-03T03:59:58.921Z,21.90
2022-12-03T04:02:26.792Z,18.73
2022-12-03T04:04:53.804Z,17.10
2022-12-03T04:07:20.442Z,18.35
2022-12-03T04:09:46.896Z,19.02
2022-12-03T04:12:32.020Z,20.33
2022-12-03T04:14:58.792Z,19.60
2022-12-03T04:17:25.410Z,18.80
2022-12-03T04:19:51.805Z,21.15
2022-12-03T04:22:37.652Z,18.05
2022-12-03T04:25:23.127Z,20.77
2022-12-03T04:28:08.377Z,17.30
2022-12-03T04:30:34.808Z,21.52
2022-12-03T04:33:19.909Z,19.98
2022-12-03T04:35:46.490Z,18.77
2022-12-03T04:38:15.319Z,18.40
2022-12-03T04:41:00.776Z,19.35
2022-12-03T04:43:32.588Z,17.90
2022-12-03T04:45:59.422Z,17.83
2022-12-03T04:48:26.253Z,18.00
2022-12-03T04:50:52.970Z,18.48
2022-12-03T04:53:19.423Z,18.88
2022-12-03T04:55:45.916Z,19.75
2022-12-03T04:58:12.307Z,20.00
2022-12-03T05:00:38.858Z,18.37
2022-12-03T05:03:05.379Z,18.92
2022-12-03T05:05:31.897Z,18.23
2022-12-03T05:07:58.383Z,16.67
2022-12-03T05:10:24.848Z,17.88
2022-12-03T05:12:51.279Z,20.48
2022-12-03T05:15:17.765Z,18.33
2022-12-03T05:17:44.191Z,18.77
2022-12-03T05:20:29.955Z,19.70
2022-12-03T05:22:56.903Z,17.90
2022-12-03T05:25:23.330Z,18.50
2022-12-03T05:27:49.741Z,20.27
2022-12-03T05:30:16.371Z,21.10
2022-12-03T05:32:42.862Z,20.65
2022-12-03T05:35:10.112Z,18.55
2022-12-03T05:37:36.568Z,21.15
2022-12-03T05:40:03.283Z,20.15
2022-12-03T05:42:56.005Z,20.02
2022-12-03T05:45:48.855Z,17.65
2022-12-03T05:48:16.622Z,19.98
2022-12-03T05:50:44.548Z,18.95
2022-12-03T05:53:11.974Z,20.67
2022-12-03T05:55:38.723Z,18.27
2022-12-03T05:58:05.570Z,19.15
2022-12-03T06:00:42.106Z,18.65
2022-12-03T06:03:09.203Z,19.23
2022-12-03T06:05:35.766Z,19.15
2022-12-03T06:08:02.333Z,18.65
2022-12-03T06:10:29.766Z,17.40
2022-12-03T06:12:56.468Z,20.42
2022-12-03T06:15:23.095Z,18.73
2022-12-03T06:17:49.613Z,19.85
2022-12-03T06:20:18.091Z,19.60
2022-12-03T06:22:44.860Z,17.85
2022-12-03T06:25:11.904Z,19.27
2022-12-03T06:27:38.364Z,17.10
2022-12-03T06:30:06.151Z,16.17
2022-12-03T06:32:32.581Z,16.05
2022-12-03T06:34:58.961Z,17.73
2022-12-03T06:37:25.327Z,17.77
2022-12-03T06:39:51.725Z,18.13
2022-12-03T06:42:18.140Z,18.23
2022-12-03T06:44:44.540Z,18.25
2022-12-03T06:47:10.940Z,16.45
2022-12-03T06:49:37.355Z,17.42
2022-12-03T06:52:03.887Z,19.13
2022-12-03T06:54:30.319Z,17.52
2022-12-03T06:56:56.718Z,19.63
2022-12-03T06:59:23.591Z,18.27
2022-12-03T07:01:50.072Z,19.58
2022-12-03T07:04:16.512Z,18.95
2022-12-03T07:06:42.910Z,17.77
2022-12-03T07:09:09.421Z,19.30
2022-12-03T07:11:44.648Z,19.45
2022-12-03T07:14:11.479Z,19.13
2022-12-03T07:16:38.907Z,19.25
2022-12-03T07:19:06.271Z,18.90
2022-12-03T07:21:32.764Z,20.23
2022-12-03T07:23:59.193Z,18.33
2022-12-03T07:26:25.670Z,18.95
2022-12-03T07:28:52.148Z,19.85
2022-12-03T07:31:18.793Z,18.70
2022-12-03T07:33:45.524Z,17.75
2022-12-03T07:36:11.963Z,16.65
2022-12-03T07:38:38.464Z,17.15
2022-12-03T07:41:05.118Z,16.02
2022-12-03T07:43:31.540Z,17.13
2022-12-03T07:45:57.949Z,18.08
2022-12-03T07:48:24.369Z,17.15
2022-12-03T07:50:50.816Z,17.85
2022-12-03T07:53:17.257Z,18.00
2022-12-03T07:55:43.780Z,17.00
2022-12-03T07:58:10.206Z,18.63
2022-12-03T08:00:36.803Z,17.35
2022-12-03T08:03:03.236Z,16.15
2022-12-03T08:05:29.870Z,16.65
2022-12-03T08:07:56.568Z,19.08
2022-12-03T08:10:24.478Z,17.88
2022-12-03T08:12:50.904Z,18.42
2022-12-03T08:15:25.032Z,19.30
2022-12-03T08:17:56.601Z,19.35
2022-12-03T08:20:25.315Z,19.67
2022-12-03T08:22:53.003Z,18.60
2022-12-03T08:25:22.382Z,18.08
2022-12-03T08:27:48.991Z,18.48
2022-12-03T08:30:17.027Z,19.40
2022-12-03T08:32:44.075Z,18.30
2022-12-03T08:35:12.450Z,19.88
2022-12-03T08:37:38.825Z,19.00
2022-12-03T08:40:19.933Z,20.13
2022-12-03T08:45:40.355Z,19.00
2022-12-03T08:48:19.093Z,19.00
2022-12-03T08:50:45.586Z,19.02
2022-12-03T08:53:20.970Z,18.85
2022-12-03T08:55:51.586Z,19.20
2022-12-03T08:58:23.408Z,19.17
2022-12-03T09:00:53.432Z,18.98
2022-12-03T09:03:19.970Z,19.47
2022-12-03T09:05:46.386Z,19.25
2022-12-03T09:08:12.944Z,21.88
2022-12-03T09:10:39.480Z,21.80
2022-12-03T09:13:06.033Z,20.90
2022-12-03T09:15:32.494Z,19.02
2022-12-03T09:17:58.868Z,16.52
2022-12-03T09:20:25.266Z,19.63
2022-12-03T09:22:51.661Z,23.02
2022-12-03T09:25:18.071Z,21.48
2022-12-03T09:27:44.456Z,19.77
2022-12-03T09:30:11.221Z,23.67
2022-12-03T09:32:37.863Z,21.98
2022-12-03T09:35:04.879Z,22.65
2022-12-03T09:37:31.309Z,20.92
2022-12-03T09:39:57.703Z,21.73
2022-12-03T09:42:25.125Z,22.35
2022-12-03T09:44:52.430Z,22.85
2022-12-03T09:47:19.284Z,21.98
2022-12-03T09:49:45.805Z,20.13
2022-12-03T09:52:19.607Z,21.70
2022-12-03T09:54:47.642Z,22.00
2022-12-03T09:57:14.242Z,22.35
2022-12-03T09:59:40.749Z,21.80
2022-12-03T10:02:26.706Z,21.92
2022-12-03T10:04:53.493Z,20.40
2022-12-03T10:07:20.498Z,21.80
2022-12-03T10:09:48.873Z,21.13
2022-12-03T10:12:21.404Z,21.48
2022-12-03T10:14:47.777Z,22.70
2022-12-03T10:17:14.747Z,23.20
2022-12-03T10:19:42.690Z,20.45
2022-12-03T10:22:09.196Z,20.67
2022-12-03T10:24:36.640Z,23.80
2022-12-03T10:27:24.576Z,23.23
2022-12-03T10:29:58.653Z,20.38
2022-12-03T10:32:40.568Z,20.85
2022-12-03T10:35:19.935Z,23.13
2022-12-03T10:38:01.027Z,22.08
2022-12-03T10:43:20.934Z,21.55
2022-12-03T10:46:10.408Z,23.40
2022-12-03T10:48:36.903Z,21.85
2022-12-03T10:51:17.660Z,22.60
2022-12-03T10:53:44.133Z,23.13
2022-12-03T10:56:16.650Z,22.63
2022-12-03T10:58:43.202Z,21.50
2022-12-03T11:01:21.574Z,23.35
2022-12-03T11:03:49.009Z,24.50
2022-12-03T11:06:17.222Z,22.92
2022-12-03T11:08:45.599Z,20.85
2022-12-03T11:11:14.981Z,23.40
2022-12-03T11:13:41.284Z,24.20
2022-12-03T11:16:10.588Z,25.20
2022-12-03T11:18:36.986Z,23.52
2022-12-03T11:21:04.678Z,25.05
2022-12-03T11:23:46.374Z,23.20
2022-12-03T11:26:18.887Z,20.02
2022-12-03T11:28:46.002Z,23.55
2022-12-03T11:31:44.477Z,23.10
2022-12-03T11:34:20.364Z,22.30
2022-12-03T11:37:11.799Z,20.27
2022-12-03T11:39:50.654Z,24.20
2022-12-03T11:42:26.216Z,23.13
2022-12-03T11:45:05.224Z,18.58
2022-12-03T11:47:38.528Z,23.83
2022-12-03T11:50:22.978Z,21.08
2022-12-03T11:52:56.961Z,22.92
2022-12-03T11:55:33.066Z,22.92
2022-12-03T11:58:04.788Z,22.08
2022-12-03T12:00:31.254Z,21.45
2022-12-03T12:02:58.740Z,19.65
2022-12-03T12:05:32.144Z,21.35
2022-12-03T12:08:00.817Z,19.58
2022-12-03T12:10:47.861Z,17.98
2022-12-03T12:13:35.881Z,22.63
2022-12-03T12:16:07.066Z,20.05
2022-12-03T12:18:37.648Z,21.90
2022-12-03T12:21:47.476Z,24.50
2022-12-03T12:24:45.752Z,23.55
2022-12-03T12:27:15.200Z,20.95
2022-12-03T12:29:45.693Z,22.15
2022-12-03T12:32:17.379Z,23.05
2022-12-03T12:34:53.250Z,22.30
2022-12-03T12:37:31.840Z,23.75
2022-12-03T12:39:58.731Z,21.02
2022-12-03T12:42:32.673Z,23.27
2022-12-03T12:45:20.590Z,20.45
2022-12-03T12:48:01.722Z,23.55
2022-12-03T12:52:58.938Z,21.67
2022-12-03T12:55:25.466Z,17.35
2022-12-03T12:57:51.904Z,22.23
2022-12-03T13:00:21.187Z,23.27
2022-12-03T13:02:55.105Z,25.15
2022-12-03T13:05:21.861Z,25.02
2022-12-03T13:07:48.392Z,21.42
2022-12-03T13:10:28.159Z,23.67
2022-12-03T13:12:54.614Z,21.92
2022-12-03T13:15:45.242Z,19.27
2022-12-03T13:18:20.348Z,24.60
2022-12-03T13:20:47.119Z,24.35
2022-12-03T13:23:39.837Z,24.67
2022-12-03T13:26:30.529Z,22.35
2022-12-03T13:29:07.330Z,23.02
2022-12-03T13:34:01.924Z,20.77
2022-12-03T13:36:37.936Z,22.75
2022-12-03T13:39:22.800Z,18.02
2022-12-03T13:42:07.766Z,23.45
2022-12-03T13:44:34.655Z,20.90
2022-12-03T13:47:03.070Z,22.98
2022-12-03T13:49:30.230Z,23.15
2022-12-03T13:51:56.609Z,21.67
2022-12-03T13:54:26.549Z,22.55
2022-12-03T13:56:52.987Z,23.13
2022-12-03T13:59:25.827Z,22.27
2022-12-03T14:01:52.757Z,21.13
2022-12-03T14:04:19.185Z,21.30
2022-12-03T14:06:45.573Z,20.98
2022-12-03T14:09:11.964Z,23.20
2022-12-03T14:11:57.050Z,22.90
2022-12-03T14:14:23.466Z,23.17
2022-12-03T14:16:52.158Z,22.13
2022-12-03T14:19:20.720Z,21.10
2022-12-03T14:21:47.124Z,24.35
2022-12-03T14:24:13.551Z,21.98
2022-12-03T14:26:39.980Z,22.80
2022-12-03T14:29:08.951Z,21.70
2022-12-03T14:31:35.744Z,22.65
2022-12-03T14:34:02.264Z,21.83
2022-12-03T14:36:28.670Z,22.33
2022-12-03T14:38:55.090Z,22.33
2022-12-03T14:41:40.245Z,22.88
2022-12-03T14:44:06.620Z,21.13
2022-12-03T14:46:33.065Z,23.73
2022-12-03T14:48:59.495Z,23.23
2022-12-03T14:51:25.893Z,21.85
2022-12-03T14:53:52.286Z,22.13
2022-12-03T14:56:18.922Z,20.20
2022-12-03T14:58:45.381Z,20.40
2022-12-03T15:01:11.889Z,21.98
2022-12-03T15:03:38.376Z,20.70
2022-12-03T15:06:04.979Z,22.27
2022-12-03T15:08:31.398Z,21.85
2022-12-03T15:10:57.802Z,19.25
2022-12-03T15:13:24.164Z,22.92
2022-12-03T15:15:50.633Z,20.67
2022-12-03T15:18:17.133Z,21.45
2022-12-03T15:20:43.581Z,21.98
2022-12-03T15:23:14.213Z,21.20
2022-12-03T15:25:41.280Z,21.30
2022-12-03T15:28:07.831Z,23.02
2022-12-03T15:30:37.163Z,22.73
2022-12-03T15:33:03.651Z,23.15
2022-12-03T15:35:30.573Z,22.45
2022-12-03T15:37:57.158Z,21.58
2022-12-03T15:40:24.527Z,22.02
2022-12-03T15:42:51.011Z,22.92
2022-12-03T15:45:17.455Z,21.70
2022-12-03T15:47:43.919Z,24.15
2022-12-03T15:50:10.685Z,21.83
2022-12-03T15:52:37.045Z,23.42
2022-12-03T15:55:03.652Z,22.75
2022-12-03T15:57:31.049Z,21.27
2022-12-03T15:59:57.740Z,22.13
2022-12-03T16:02:24.541Z,24.98
2022-12-03T16:04:51.073Z,23.15
2022-12-03T16:07:17.458Z,23.13
2022-12-03T16:09:43.969Z,22.52
2022-12-03T16:12:10.341Z,23.13
2022-12-03T16:14:36.712Z,22.52
2022-12-03T16:17:03.125Z,22.13
2022-12-03T16:19:29.555Z,20.48
2022-12-03T16:21:55.921Z,23.40
2022-12-03T16:24:22.320Z,21.45
2022-12-03T16:26:48.704Z,20.58
2022-12-03T16:29:15.086Z,19.08
2022-12-03T16:31:41.590Z,23.75
2022-12-03T16:34:08.036Z,23.67
2022-12-03T16:36:34.438Z,22.83
2022-12-03T16:39:00.872Z,22.67
2022-12-03T16:41:27.235Z,19.27
2022-12-03T16:43:53.776Z,23.77
2022-12-03T16:46:21.076Z,23.98
2022-12-03T16:48:48.055Z,23.25
2022-12-03T16:51:14.890Z,20.42
2022-12-03T16:53:41.403Z,18.27
2022-12-03T16:56:08.001Z,21.25
2022-12-03T16:58:34.428Z,19.45
2022-12-03T17:01:00.919Z,21.10
2022-12-03T17:03:33.392Z,20.25
2022-12-03T17:06:00.436Z,21.20
2022-12-03T17:08:27.012Z,18.45
2022-12-03T17:10:53.559Z,20.90
2022-12-03T17:13:20.199Z,23.48
2022-12-03T17:15:46.723Z,22.08
2022-12-03T17:18:13.164Z,21.35
2022-12-03T17:20:39.602Z,21.15
2022-12-03T17:23:06.218Z,19.05
2022-12-03T17:25:32.606Z,20.17
2022-12-03T17:27:59.048Z,19.60
2022-12-03T17:30:25.448Z,17.63
2022-12-03T17:32:51.865Z,21.13
2022-12-03T17:35:18.975Z,24.02
2022-12-03T17:37:45.629Z,23.33
2022-12-03T17:40:15.122Z,18.67
2022-12-03T17:42:41.523Z,23.10
2022-12-03T17:45:08.291Z,24.05
2022-12-03T17:47:34.687Z,23.00
2022-12-03T17:50:01.074Z,23.95
2022-12-03T17:52:27.483Z,21.27
2022-12-03T17:55:12.218Z,21.90
2022-12-03T17:57:42.608Z,22.38
2022-12-03T18:00:09.599Z,21.55
2022-12-03T18:02:35.997Z,22.73
2022-12-03T18:05:02.393Z,20.63
2022-12-03T18:07:28.863Z,20.00
2022-12-03T18:09:55.693Z,22.92
2022-12-03T18:12:22.544Z,22.27
2022-12-03T18:14:48.966Z,22.45
2022-12-03T18:17:15.364Z,21.98
2022-12-03T18:19:41.754Z,23.58
2022-12-03T18:22:08.304Z,23.90
2022-12-03T18:24:34.888Z,22.48
2022-12-03T18:27:01.328Z,23.90
2022-12-03T18:29:27.741Z,24.00
2022-12-03T18:31:54.221Z,21.45
2022-12-03T18:34:20.749Z,22.00
2022-12-03T18:36:48.746Z,22.45
2022-12-03T18:39:35.350Z,25.00
2022-12-03T18:42:02.012Z,22.35
2022-12-03T18:44:29.066Z,23.63
2022-12-03T18:46:57.433Z,24.30
2022-12-03T18:49:24.059Z,23.08
2022-12-03T18:51:54.503Z,24.77
2022-12-03T18:54:25.248Z,24.45
2022-12-03T18:56:51.626Z,18.70
2022-12-03T18:59:18.231Z,25.02
2022-12-03T19:01:44.968Z,25.10
2022-12-03T19:04:11.465Z,21.85
2022-12-03T19:06:37.840Z,23.05
2022-12-03T19:09:04.357Z,24.65
2022-12-03T19:11:30.771Z,22.55
2022-12-03T19:13:58.944Z,25.83
2022-12-03T19:16:25.655Z,22.10
2022-12-03T19:18:53.832Z,24.20
2022-12-03T19:21:20.196Z,23.52
2022-12-03T19:24:16.110Z,23.65
2022-12-03T19:26:33.181Z,24.63
2022-12-03T19:28:59.936Z,23.90
2022-12-03T19:31:26.584Z,22.17
2022-12-03T19:33:54.226Z,24.65
2022-12-03T19:36:29.258Z,24.27
2022-12-03T19:38:57.769Z,25.95
2022-12-03T19:41:30.386Z,25.80
2022-12-03T19:43:57.734Z,24.15
2022-12-03T19:46:26.028Z,25.05
2022-12-03T19:48:53.709Z,24.35
2022-12-03T19:51:34.079Z,24.65
2022-12-03T19:54:01.566Z,25.48
2022-12-03T19:56:30.125Z,25.02
2022-12-03T19:58:57.437Z,25.08
2022-12-03T20:01:26.370Z,27.10
2022-12-03T20:03:54.450Z,23.73
2022-12-03T20:06:24.137Z,25.73
2022-12-03T20:08:51.587Z,28.33
2022-12-03T20:11:24.433Z,29.15
2022-12-03T20:13:56.033Z,24.58
2022-12-03T20:16:23.012Z,25.85
2022-12-03T20:18:50.572Z,26.13
2022-12-03T20:21:18.475Z,25.85
2022-12-03T20:23:45.963Z,25.30
2022-12-03T20:26:15.405Z,26.48
2022-12-03T20:28:41.891Z,26.92
2022-12-03T20:31:13.104Z,25.33
2022-12-03T20:33:43.060Z,25.13
2022-12-03T20:36:10.801Z,27.15
2022-12-03T20:38:37.659Z,26.30
2022-12-03T20:41:07.610Z,25.20
2022-12-03T20:43:34.485Z,27.88
2022-12-03T20:46:11.144Z,25.75
2022-12-03T20:48:37.918Z,26.38
2022-12-03T20:51:06.159Z,27.13
2022-12-03T20:53:33.257Z,27.20
2022-12-03T20:56:00.381Z,22.73
2022-12-03T20:58:27.139Z,27.25
2022-12-03T21:00:53.692Z,25.55
2022-12-03T21:03:20.352Z,26.73
2022-12-03T21:05:47.603Z,25.58
2022-12-03T21:08:14.104Z,27.08
2022-12-03T21:10:47.277Z,26.23
2022-12-03T21:13:15.001Z,27.98
2022-12-03T21:15:45.101Z,26.52
2022-12-03T21:18:14.271Z,29.23
2022-12-03T21:20:42.624Z,28.30
2022-12-03T21:23:09.525Z,28.30
2022-12-03T21:25:37.062Z,28.15
2022-12-03T21:28:05.021Z,28.35
2022-12-03T21:30:32.039Z,28.05
2022-12-03T21:32:58.711Z,27.58
2022-12-03T21:35:25.508Z,28.85
2022-12-03T21:37:51.892Z,23.85
2022-12-03T21:40:19.264Z,31.33
2022-12-03T21:42:45.719Z,28.33
2022-12-03T21:45:12.107Z,30.75
2022-12-03T21:47:38.600Z,28.48
2022-12-03T21:50:06.727Z,29.42
2022-12-03T21:52:34.446Z,27.83
2022-12-03T21:55:00.934Z,24.90
2022-12-03T21:57:27.451Z,28.05
2022-12-03T21:59:55.588Z,24.90
2022-12-03T22:02:22.425Z,28.05
2022-12-03T22:04:50.212Z,26.20
2022-12-03T22:07:16.875Z,20.73
2022-12-03T22:09:43.262Z,31.90
2022-12-03T22:12:09.661Z,29.83
2022-12-03T22:14:36.204Z,27.35
2022-12-03T22:17:02.595Z,24.95
2022-12-03T22:19:29.037Z,27.48
2022-12-03T22:21:55.559Z,26.00
2022-12-03T22:24:23.603Z,27.83
2022-12-03T22:26:50.072Z,25.67
2022-12-03T22:29:16.616Z,29.05
2022-12-03T22:31:43.018Z,28.90
2022-12-03T22:34:09.453Z,25.65
2022-12-03T22:36:35.867Z,26.55
2022-12-03T22:39:02.478Z,28.33
2022-12-03T22:41:28.955Z,26.00
2022-12-03T22:43:55.326Z,27.50
2022-12-03T22:46:21.806Z,29.83
2022-12-03T22:48:48.382Z,27.15
2022-12-03T22:51:18.563Z,28.60
2022-12-03T22:53:45.291Z,27.73
2022-12-03T22:56:11.812Z,24.98
2022-12-03T22:58:39.021Z,29.25
2022-12-03T23:01:06.236Z,30.40
2022-12-03T23:03:32.908Z,28.40
2022-12-03T23:05:59.351Z,27.15
2022-12-03T23:08:25.742Z,26.35
2022-12-03T23:10:53.388Z,29.27
2022-12-03T23:13:20.535Z,28.40
2022-12-03T23:15:51.965Z,29.80
2022-12-03T23:18:19.351Z,28.60
2022-12-03T23:20:48.144Z,32.22
2022-12-03T23:23:15.074Z,26.52
2022-12-03T23:25:41.728Z,27.95
2022-12-03T23:28:08.403Z,29.58
2022-12-03T23:30:36.428Z,28.85
2022-12-03T23:33:04.070Z,28.42
2022-12-03T23:35:31.150Z,28.05
2022-12-03T23:37:57.619Z,29.90
2022-12-03T23:40:24.101Z,28.20
2022-12-03T23:42:50.533Z,27.70
2022-12-03T23:45:17.007Z,29.05
2022-12-03T23:47:43.436Z,28.50
2022-12-03T23:50:11.009Z,30.65
2022-12-03T23:52:37.561Z,32.00
2022-12-03T23:55:04.157Z,29.70
2022-12-03T23:57:30.534Z,26.95
2022-12-03T23:59:57.230Z,29.65
